createdAt,value
2018-06-02T00:01:56.666Z,92.80
2018-06-02T00:11:58.158Z,92.90
2018-06-02T00:22:00.238Z,93.10
2018-06-02T00:32:01.614Z,93.10
2018-06-02T00:42:02.980Z,93.10
2018-06-02T00:52:04.316Z,93.50
2018-06-02T01:02:05.700Z,93.50
2018-06-02T01:12:07.031Z,93.20
2018-06-02T01:22:08.379Z,93.40
2018-06-02T01:32:09.739Z,93.50
2018-06-02T01:42:11.914Z,93.30
2018-06-02T01:52:13.273Z,93.30
2018-06-02T02:02:14.623Z,93.60
2018-06-02T02:12:15.985Z,93.60
2018-06-02T02:22:17.315Z,93.30
2018-06-02T02:32:18.642Z,93.30
2018-06-02T02:42:20.747Z,93.40
2018-06-02T02:52:22.065Z,93.40
2018-06-02T03:02:23.429Z,93.20
2018-06-02T03:12:24.781Z,93.40
2018-06-02T03:22:26.162Z,93.80
2018-06-02T03:32:27.520Z,93.60
2018-06-02T03:42:28.893Z,93.80
2018-06-02T03:52:30.264Z,93.70
2018-06-02T04:02:31.627Z,93.40
2018-06-02T04:12:32.939Z,93.00
2018-06-02T04:22:35.039Z,92.70
2018-06-02T04:32:36.562Z,92.70
2018-06-02T04:42:37.940Z,91.80
2018-06-02T04:52:40.042Z,90.60
2018-06-02T05:33:07.983Z,83.00
2018-06-02T05:43:10.096Z,77.00
2018-06-02T05:53:12.218Z,74.20
2018-06-02T06:03:14.300Z,76.30
2018-06-02T06:23:25.362Z,76.90
2018-06-02T06:33:26.678Z,74.90
2018-06-02T06:43:32.154Z,64.30
2018-06-02T06:53:33.502Z,56.90
2018-06-02T07:03:35.616Z,53.70
2018-06-02T07:33:51.415Z,55.00
2018-06-02T07:43:52.790Z,54.40
2018-06-02T07:53:54.189Z,56.60
2018-06-02T08:14:02.953Z,56.70
2018-06-02T08:24:04.435Z,35.30
2018-06-02T08:34:05.770Z,29.60
2018-06-02T08:44:07.157Z,27.90
2018-06-02T08:54:08.482Z,24.30
2018-06-02T09:04:09.837Z,22.50
2018-06-02T09:14:11.199Z,25.10
2018-06-02T09:24:13.435Z,24.20
2018-06-02T09:34:14.783Z,24.20
2018-06-02T09:44:16.141Z,23.00
2018-06-02T09:54:17.502Z,22.50
2018-06-02T10:04:18.820Z,24.10
2018-06-02T10:14:20.148Z,26.20
2018-06-02T10:24:21.480Z,23.20
2018-06-02T10:34:22.823Z,27.80
2018-06-02T10:44:24.180Z,30.40
2018-06-02T10:54:25.547Z,39.00
2018-06-02T11:04:26.902Z,36.50
2018-06-02T11:24:35.412Z,37.70
2018-06-02T11:34:36.798Z,38.50
2018-06-02T11:44:38.228Z,39.60
2018-06-02T11:54:39.578Z,42.10
2018-06-02T12:04:40.896Z,45.20
2018-06-02T12:14:42.255Z,47.80
2018-06-02T12:24:43.593Z,47.50
2018-06-02T12:34:44.971Z,49.30
2018-06-02T12:44:46.296Z,49.80
2018-06-02T12:54:48.539Z,51.20
2018-06-02T13:04:49.987Z,50.50
2018-06-02T13:14:51.334Z,49.50
2018-06-02T13:24:52.686Z,48.40
2018-06-02T13:34:54.038Z,51.20
2018-06-02T13:44:55.386Z,55.60
2018-06-02T13:54:57.280Z,55.50
2018-06-02T14:04:58.609Z,54.30
2018-06-02T14:45:22.587Z,51.20
2018-06-02T14:55:23.948Z,51.20
2018-06-02T15:15:33.183Z,51.10
2018-06-02T15:25:35.416Z,49.30
2018-06-02T15:35:36.767Z,49.30
2018-06-02T16:26:07.285Z,55.90
2018-06-02T16:36:08.597Z,54.60
2018-06-02T16:46:09.907Z,56.50
2018-06-02T16:56:11.374Z,55.90
2018-06-02T17:06:12.792Z,52.90
2018-06-02T17:16:14.181Z,55.50
2018-06-02T17:36:22.673Z,58.70
2018-06-02T17:46:24.782Z,62.80
2018-06-02T17:56:26.136Z,62.70
2018-06-02T18:06:27.528Z,66.40
2018-06-02T18:16:28.845Z,69.70
2018-06-02T18:26:35.866Z,71.00
2018-06-02T18:36:37.182Z,71.60
2018-06-02T18:46:38.499Z,74.10
2018-06-02T18:56:40.627Z,84.30
2018-06-02T19:16:48.696Z,83.20
2018-06-02T19:26:51.102Z,85.40
2018-06-02T19:46:58.870Z,91.80
2018-06-02T20:37:32.213Z,91.20
2018-06-02T20:47:34.292Z,91.40
2018-06-02T20:57:36.394Z,90.90
2018-06-02T21:07:37.742Z,90.90
2018-06-02T21:17:39.092Z,91.20
2018-06-02T21:27:40.464Z,91.10
2018-06-02T21:37:41.810Z,91.20
2018-06-02T21:47:43.923Z,92.80
2018-06-02T21:57:45.233Z,92.80
2018-06-02T22:07:46.547Z,92.60
2018-06-02T22:17:47.880Z,92.70
2018-06-02T22:48:03.014Z,92.90
2018-06-02T22:58:04.394Z,93.50
2018-06-02T23:08:05.739Z,93.50
2018-06-02T23:18:07.866Z,93.90
2018-06-02T23:28:10.082Z,93.90
2018-06-02T23:38:11.464Z,93.90
2018-06-02T23:48:12.809Z,93.70
2018-06-02T23:58:14.121Z,93.70
